Time,TemperatureF,DewpointF,PressureIn,WindDirection,WindDirectionDegrees,WindSpeedMPH,WindSpeedGustMPH,Humidity,HourlyPrecipIn,Conditions,Clouds,dailyrainin,SoftwareType,DateUTC
2013-03-19 00:03:00,32.0,25.0,30.26,North,-999,0.0,0.0,75,0.00,,,0.00,pywws,2013-03-19 07:03:00,
2013-03-19 00:08:00,31.8,25.4,30.27,North,-999,0.0,0.0,77,0.00,,,0.00,pywws,2013-03-19 07:08:00,
2013-03-19 00:13:00,31.8,25.1,30.27,North,-999,0.0,0.0,76,0.00,,,0.00,pywws,2013-03-19 07:13:00,
2013-03-19 00:18:00,31.6,25.3,30.26,North,-999,0.0,0.0,77,0.00,,,0.00,pywws,2013-03-19 07:18:00,
2013-03-19 00:23:00,31.3,24.9,30.27,North,-999,0.0,0.0,77,0.00,,,0.00,pywws,2013-03-19 07:23:00,
2013-03-19 00:28:00,31.1,24.7,30.26,North,-999,0.0,0.0,77,0.00,,,0.00,pywws,2013-03-19 07:28:00,
2013-03-19 00:33:00,30.9,24.6,30.26,North,-999,0.0,0.0,77,0.00,,,0.00,pywws,2013-03-19 07:33:00,
2013-03-19 00:38:00,30.9,24.6,30.26,North,-999,0.0,0.0,77,0.00,,,0.00,pywws,2013-03-19 07:38:00,
2013-03-19 00:43:00,30.7,24.4,30.26,North,-999,0.0,0.0,77,0.00,,,0.00,pywws,2013-03-19 07:43:00,
2013-03-19 00:48:00,30.7,24.4,30.26,North,-999,0.0,0.0,77,0.00,,,0.00,pywws,2013-03-19 07:48:00,
2013-03-19 00:53:00,30.6,24.2,30.25,North,-999,0.0,0.0,77,0.00,,,0.00,pywws,2013-03-19 07:53:00,
2013-03-19 00:58:00,30.6,24.2,30.26,North,-999,0.0,0.0,77,0.00,,,0.00,pywws,2013-03-19 07:58:00,
2013-03-19 01:03:00,30.6,24.2,30.25,North,-999,0.0,0.0,77,0.00,,,0.00,pywws,2013-03-19 08:03:00,
2013-03-19 01:08:00,30.4,24.0,30.25,North,-999,0.0,0.0,77,0.00,,,0.00,pywws,2013-03-19 08:08:00,
2013-03-19 01:13:00,30.2,23.9,30.25,North,-999,0.0,0.0,77,0.00,,,0.00,pywws,2013-03-19 08:13:00,
2013-03-19 01:18:00,30.2,23.9,30.25,North,-999,0.0,0.0,77,0.00,,,0.00,pywws,2013-03-19 08:18:00,
2013-03-19 01:23:00,30.2,23.9,30.24,North,-999,0.0,0.0,77,0.00,,,0.00,pywws,2013-03-19 08:23:00,
2013-03-19 01:28:00,30.2,23.9,30.24,North,-999,0.0,0.0,77,0.00,,,0.00,pywws,2013-03-19 08:28:00,
2013-03-19 01:33:00,30.4,24.0,30.24,North,-999,0.0,0.0,77,0.00,,,0.00,pywws,2013-03-19 08:33:00,
2013-03-19 01:38:00,30.2,24.2,30.24,North,-999,0.0,0.0,78,0.00,,,0.00,pywws,2013-03-19 08:38:00,
2013-03-19 01:43:00,30.2,24.2,30.24,North,-999,0.0,0.0,78,0.00,,,0.00,pywws,2013-03-19 08:43:00,
2013-03-19 01:48:00,30.2,24.2,30.24,North,-999,0.0,0.0,78,0.00,,,0.00,pywws,2013-03-19 08:48:00,
2013-03-19 01:53:00,29.7,23.7,30.24,North,-999,0.0,0.0,78,0.00,,,0.00,pywws,2013-03-19 08:53:00,
2013-03-19 01:58:00,29.8,23.8,30.24,North,-999,0.0,0.0,78,0.00,,,0.00,pywws,2013-03-19 08:58:00,
2013-03-19 02:03:00,30.0,24.3,30.23,North,-999,0.0,0.0,79,0.00,,,0.00,pywws,2013-03-19 09:03:00,
2013-03-19 02:08:00,30.0,24.3,30.23,North,-999,0.0,0.0,79,0.00,,,0.00,pywws,2013-03-19 09:08:00,
2013-03-19 02:13:00,30.0,24.3,30.23,North,-999,0.0,0.0,79,0.00,,,0.00,pywws,2013-03-19 09:13:00,
2013-03-19 02:18:00,30.4,24.4,30.23,North,-999,0.0,0.0,78,0.00,,,0.00,pywws,2013-03-19 09:18:00,
2013-03-19 02:23:00,30.7,24.7,30.23,North,-999,0.0,0.0,78,0.00,,,0.00,pywws,2013-03-19 09:23:00,
2013-03-19 02:28:00,29.3,23.6,30.23,North,-999,0.0,0.0,79,0.00,,,0.00,pywws,2013-03-19 09:28:00,
2013-03-19 02:33:00,28.6,22.9,30.23,North,-999,0.0,0.0,79,0.00,,,0.00,pywws,2013-03-19 09:33:00,
2013-03-19 02:38:00,28.8,23.1,30.23,North,-999,0.0,0.0,79,0.00,,,0.00,pywws,2013-03-19 09:38:00,
2013-03-19 02:43:00,29.1,23.4,30.22,North,-999,0.0,0.0,79,0.00,,,0.00,pywws,2013-03-19 09:43:00,
2013-03-19 02:48:00,29.1,23.4,30.22,North,-999,0.0,0.0,79,0.00,,,0.00,pywws,2013-03-19 09:48:00,
2013-03-19 02:53:00,29.1,23.4,30.22,North,-999,0.0,0.0,79,0.00,,,0.00,pywws,2013-03-19 09:53:00,
2013-03-19 02:58:00,29.3,23.6,30.22,North,-999,0.0,0.0,79,0.00,,,0.00,pywws,2013-03-19 09:58:00,
2013-03-19 03:03:00,29.3,23.6,30.22,North,-999,0.0,0.0,79,0.00,,,0.00,pywws,2013-03-19 10:03:00,
2013-03-19 03:08:00,29.7,24.0,30.22,North,-999,0.0,0.0,79,0.00,,,0.00,pywws,2013-03-19 10:08:00,
2013-03-19 03:13:00,29.3,23.6,30.21,North,-999,0.0,0.0,79,0.00,,,0.00,pywws,2013-03-19 10:13:00,
2013-03-19 03:18:00,28.6,22.9,30.21,North,-999,0.0,0.0,79,0.00,,,0.00,pywws,2013-03-19 10:18:00,
2013-03-19 03:23:00,28.8,23.1,30.21,North,-999,0.0,0.0,79,0.00,,,0.00,pywws,2013-03-19 10:23:00,
2013-03-19 03:28:00,28.8,23.1,30.21,North,-999,0.0,0.0,79,0.00,,,0.00,pywws,2013-03-19 10:28:00,
2013-03-19 03:33:00,28.6,22.9,30.20,North,-999,0.0,0.0,79,0.00,,,0.00,pywws,2013-03-19 10:33:00,
2013-03-19 03:38:00,28.9,23.3,30.20,North,-999,0.0,0.0,79,0.00,,,0.00,pywws,2013-03-19 10:38:00,
2013-03-19 03:43:00,28.8,23.1,30.20,North,-999,0.0,0.0,79,0.00,,,0.00,pywws,2013-03-19 10:43:00,
2013-03-19 03:48:00,28.6,22.9,30.20,North,-999,0.0,0.0,79,0.00,,,0.00,pywws,2013-03-19 10:48:00,
2013-03-19 03:53:00,28.6,22.9,30.19,North,-999,0.0,0.0,79,0.00,,,0.00,pywws,2013-03-19 10:53:00,
2013-03-19 03:58:00,28.9,23.3,30.19,North,-999,0.0,0.0,79,0.00,,,0.00,pywws,2013-03-19 10:58:00,
2013-03-19 04:03:00,28.9,23.3,30.19,North,-999,0.0,0.0,79,0.00,,,0.00,pywws,2013-03-19 11:03:00,
2013-03-19 04:08:00,28.8,23.1,30.19,North,-999,0.0,0.0,79,0.00,,,0.00,pywws,2013-03-19 11:08:00,
2013-03-19 04:13:00,28.9,23.3,30.18,North,-999,0.0,0.0,79,0.00,,,0.00,pywws,2013-03-19 11:13:00,
2013-03-19 04:18:00,29.5,23.8,30.18,North,-999,0.0,0.0,79,0.00,,,0.00,pywws,2013-03-19 11:18:00,
2013-03-19 04:23:00,29.8,24.1,30.18,North,-999,0.0,0.0,79,0.00,,,0.00,pywws,2013-03-19 11:23:00,
2013-03-19 04:28:00,30.4,24.7,30.18,North,-999,0.0,0.7,79,0.00,,,0.00,pywws,2013-03-19 11:28:00,
2013-03-19 04:33:00,31.5,25.7,30.18,North,-999,0.0,0.0,79,0.00,,,0.00,pywws,2013-03-19 11:33:00,
2013-03-19 04:38:00,32.0,25.9,30.18,North,-999,0.0,0.0,78,0.00,,,0.00,pywws,2013-03-19 11:38:00,
2013-03-19 04:43:00,29.3,23.9,30.17,North,-999,0.0,0.0,80,0.00,,,0.00,pywws,2013-03-19 11:43:00,
2013-03-19 04:48:00,29.3,23.6,30.17,North,-999,0.0,0.0,79,0.00,,,0.00,pywws,2013-03-19 11:48:00,
2013-03-19 04:53:00,29.3,23.6,30.17,North,-999,0.0,0.0,79,0.00,,,0.00,pywws,2013-03-19 11:53:00,
2013-03-19 04:58:00,29.3,23.6,30.17,North,-999,0.0,0.0,79,0.00,,,0.00,pywws,2013-03-19 11:58:00,
2013-03-19 05:03:00,29.3,23.6,30.16,North,-999,0.0,0.0,79,0.00,,,0.00,pywws,2013-03-19 12:03:00,
2013-03-19 05:08:00,29.7,24.0,30.16,North,-999,0.0,0.0,79,0.00,,,0.00,pywws,2013-03-19 12:08:00,
2013-03-19 05:13:00,30.6,24.8,30.16,North,0,0.7,1.6,79,0.00,,,0.00,pywws,2013-03-19 12:13:00,
2013-03-19 05:18:00,31.3,25.5,30.15,North,-999,0.0,0.7,79,0.00,,,0.00,pywws,2013-03-19 12:18:00,
2013-03-19 05:23:00,31.6,25.9,30.15,West,270,0.7,1.6,79,0.00,,,0.00,pywws,2013-03-19 12:23:00,
2013-03-19 05:28:00,31.5,25.7,30.14,West,270,0.7,1.6,79,0.00,,,0.00,pywws,2013-03-19 12:28:00,
2013-03-19 05:33:00,31.6,25.9,30.14,North,-999,0.0,0.0,79,0.00,,,0.00,pywws,2013-03-19 12:33:00,
2013-03-19 05:38:00,31.8,26.1,30.14,North,0,0.7,1.6,79,0.00,,,0.00,pywws,2013-03-19 12:38:00,
2013-03-19 05:43:00,31.8,26.1,30.14,North,-999,0.0,0.0,79,0.00,,,0.00,pywws,2013-03-19 12:43:00,
2013-03-19 05:48:00,32.0,25.6,30.14,North,-999,0.0,0.0,77,0.00,,,0.00,pywws,2013-03-19 12:48:00,
2013-03-19 05:53:00,32.4,26.0,30.13,North,-999,0.0,0.0,77,0.00,,,0.00,pywws,2013-03-19 12:53:00,
2013-03-19 05:58:00,31.1,25.1,30.13,North,-999,0.0,0.0,78,0.00,,,0.00,pywws,2013-03-19 12:58:00,
2013-03-19 06:03:00,30.0,24.0,30.13,North,-999,0.0,0.0,78,0.00,,,0.00,pywws,2013-03-19 13:03:00,
2013-03-19 06:08:00,29.8,23.8,30.13,North,-999,0.0,0.0,78,0.00,,,0.00,pywws,2013-03-19 13:08:00,
2013-03-19 06:13:00,29.8,23.8,30.13,North,-999,0.0,0.0,78,0.00,,,0.00,pywws,2013-03-19 13:13:00,
2013-03-19 06:18:00,30.0,24.0,30.12,North,-999,0.0,0.0,78,0.00,,,0.00,pywws,2013-03-19 13:18:00,
2013-03-19 06:23:00,30.2,23.9,30.12,North,-999,0.0,0.0,77,0.00,,,0.00,pywws,2013-03-19 13:23:00,
2013-03-19 06:28:00,30.2,23.9,30.12,North,-999,0.0,0.0,77,0.00,,,0.00,pywws,2013-03-19 13:28:00,
2013-03-19 06:33:00,29.7,23.7,30.12,North,-999,0.0,0.0,78,0.00,,,0.00,pywws,2013-03-19 13:33:00,
2013-03-19 06:38:00,29.7,23.7,30.12,North,-999,0.0,0.0,78,0.00,,,0.00,pywws,2013-03-19 13:38:00,
2013-03-19 06:43:00,29.7,23.7,30.12,North,-999,0.0,0.0,78,0.00,,,0.00,pywws,2013-03-19 13:43:00,
2013-03-19 06:48:00,29.3,23.3,30.12,North,-999,0.0,0.0,78,0.00,,,0.00,pywws,2013-03-19 13:48:00,
2013-03-19 06:53:00,29.3,23.3,30.11,North,-999,0.0,0.0,78,0.00,,,0.00,pywws,2013-03-19 13:53:00,
2013-03-19 06:58:00,29.3,23.3,30.11,North,-999,0.0,0.0,78,0.00,,,0.00,pywws,2013-03-19 13:58:00,
2013-03-19 07:03:00,29.5,23.5,30.11,North,-999,0.0,0.0,78,0.00,,,0.00,pywws,2013-03-19 14:03:00,
2013-03-19 07:08:00,29.3,23.3,30.11,North,-999,0.0,0.0,78,0.00,,,0.00,pywws,2013-03-19 14:08:00,
2013-03-19 07:13:00,29.1,23.1,30.11,North,-999,0.0,0.0,78,0.00,,,0.00,pywws,2013-03-19 14:13:00,
2013-03-19 07:18:00,29.1,23.4,30.11,North,-999,0.0,0.0,79,0.00,,,0.00,pywws,2013-03-19 14:18:00,
2013-03-19 07:23:00,29.1,23.1,30.11,North,-999,0.0,0.0,78,0.00,,,0.00,pywws,2013-03-19 14:23:00,
2013-03-19 07:28:00,29.1,23.4,30.11,North,-999,0.0,0.0,79,0.00,,,0.00,pywws,2013-03-19 14:28:00,
2013-03-19 07:33:00,29.1,23.4,30.11,North,-999,0.0,0.0,79,0.00,,,0.00,pywws,2013-03-19 14:33:00,
2013-03-19 07:38:00,29.1,23.4,30.10,North,-999,0.0,0.0,79,0.00,,,0.00,pywws,2013-03-19 14:38:00,
2013-03-19 07:43:00,29.1,23.4,30.10,North,-999,0.0,0.0,79,0.00,,,0.00,pywws,2013-03-19 14:43:00,
2013-03-19 07:48:00,29.1,23.4,30.10,North,-999,0.0,0.0,79,0.00,,,0.00,pywws,2013-03-19 14:48:00,
2013-03-19 07:53:00,29.3,23.6,30.10,North,-999,0.0,0.0,79,0.00,,,0.00,pywws,2013-03-19 14:53:00,
2013-03-19 07:58:00,29.5,23.8,30.10,North,-999,0.0,0.0,79,0.00,,,0.00,pywws,2013-03-19 14:58:00,
2013-03-19 08:03:00,29.7,24.0,30.10,North,-999,0.0,0.0,79,0.00,,,0.00,pywws,2013-03-19 15:03:00,
2013-03-19 08:08:00,29.7,24.0,30.10,North,-999,0.0,0.0,79,0.00,,,0.00,pywws,2013-03-19 15:08:00,
2013-03-19 08:13:00,30.2,24.2,30.10,North,-999,0.0,0.0,78,0.00,,,0.00,pywws,2013-03-19 15:13:00,
2013-03-19 08:18:00,30.6,24.5,30.10,North,-999,0.0,0.0,78,0.00,,,0.00,pywws,2013-03-19 15:18:00,
2013-03-19 08:23:00,30.4,24.4,30.10,North,-999,0.0,0.0,78,0.00,,,0.00,pywws,2013-03-19 15:23:00,
2013-03-19 08:28:00,30.4,24.4,30.09,North,-999,0.0,0.0,78,0.00,,,0.00,pywws,2013-03-19 15:28:00,
2013-03-19 08:33:00,30.6,24.5,30.09,North,-999,0.0,0.0,78,0.00,,,0.00,pywws,2013-03-19 15:33:00,
2013-03-19 08:38:00,31.3,25.2,30.09,North,-999,0.0,0.0,78,0.00,,,0.00,pywws,2013-03-19 15:38:00,
2013-03-19 08:43:00,31.6,25.6,30.09,North,-999,0.0,0.0,78,0.00,,,0.00,pywws,2013-03-19 15:43:00,
2013-03-19 08:48:00,32.0,25.6,30.09,North,-999,0.0,0.0,77,0.00,,,0.00,pywws,2013-03-19 15:48:00,
2013-03-19 08:53:00,31.6,25.6,30.09,North,-999,0.0,0.0,78,0.00,,,0.00,pywws,2013-03-19 15:53:00,
2013-03-19 08:58:00,32.0,25.6,30.09,North,-999,0.0,0.0,77,0.00,,,0.00,pywws,2013-03-19 15:58:00,
2013-03-19 09:03:00,32.5,26.1,30.09,North,-999,0.0,0.0,77,0.00,,,0.00,pywws,2013-03-19 16:03:00,
2013-03-19 09:08:00,33.1,26.7,30.09,North,-999,0.0,0.0,77,0.00,,,0.00,pywws,2013-03-19 16:08:00,
2013-03-19 09:13:00,32.2,25.5,30.09,North,-999,0.0,0.0,76,0.00,,,0.00,pywws,2013-03-19 16:13:00,
2013-03-19 09:18:00,32.7,26.0,30.09,North,-999,0.0,0.0,76,0.00,,,0.00,pywws,2013-03-19 16:18:00,
2013-03-19 09:23:00,33.4,26.7,30.08,North,-999,0.0,0.0,76,0.00,,,0.00,pywws,2013-03-19 16:23:00,
2013-03-19 09:28:00,34.0,26.9,30.09,North,-999,0.0,0.0,75,0.00,,,0.00,pywws,2013-03-19 16:28:00,
2013-03-19 09:33:00,34.7,27.6,30.08,North,-999,0.0,0.0,75,0.00,,,0.00,pywws,2013-03-19 16:33:00,
2013-03-19 09:38:00,35.4,28.3,30.08,North,-999,0.0,0.0,75,0.00,,,0.00,pywws,2013-03-19 16:38:00,
2013-03-19 09:43:00,36.0,28.2,30.08,North,-999,0.0,0.0,73,0.00,,,0.00,pywws,2013-03-19 16:43:00,
2013-03-19 09:48:00,36.1,28.0,30.08,North,-999,0.0,0.7,72,0.00,,,0.00,pywws,2013-03-19 16:48:00,
2013-03-19 09:53:00,36.9,28.7,30.07,North,-999,0.0,0.0,72,0.00,,,0.00,pywws,2013-03-19 16:53:00,
2013-03-19 10:04:00,37.6,30.7,30.07,North,-999,0.0,0.0,76,0.00,,,0.00,pywws,2013-03-19 17:04:00,
2013-03-19 10:10:00,38.7,31.1,30.07,North,-999,0.0,0.0,74,0.00,,,0.00,pywws,2013-03-19 17:10:00,
2013-03-19 10:15:00,38.8,31.3,30.07,West,270,2.2,3.1,74,0.00,,,0.00,pywws,2013-03-19 17:15:00,
2013-03-19 10:21:00,39.2,31.3,30.07,West,270,0.7,1.6,73,0.00,,,0.00,pywws,2013-03-19 17:21:00,
2013-03-19 10:26:00,39.6,31.6,30.07,West,270,1.6,2.2,73,0.00,,,0.00,pywws,2013-03-19 17:26:00,
2013-03-19 10:32:00,40.5,32.2,30.07,North,-999,0.0,0.0,72,0.00,,,0.00,pywws,2013-03-19 17:32:00,
2013-03-19 10:38:00,40.8,32.8,30.06,North,-999,0.0,0.0,73,0.00,,,0.00,pywws,2013-03-19 17:38:00,
2013-03-19 10:43:00,41.4,32.7,30.06,North,-999,0.0,0.0,71,0.00,,,0.00,pywws,2013-03-19 17:43:00,
2013-03-19 10:49:00,41.9,32.5,30.06,North,-999,0.0,0.0,69,0.00,,,0.00,pywws,2013-03-19 17:49:00,
2013-03-19 10:54:00,42.3,33.2,30.05,North,-999,0.0,0.0,70,0.00,,,0.00,pywws,2013-03-19 17:54:00,
2013-03-19 11:00:00,42.6,33.9,30.05,East,90,0.7,0.7,71,0.00,,,0.00,pywws,2013-03-19 18:00:00,
2013-03-19 11:06:00,43.5,34.0,30.04,North,-999,0.0,0.0,69,0.00,,,0.00,pywws,2013-03-19 18:06:00,
2013-03-19 11:13:00,44.1,34.2,30.04,North,-999,0.0,0.0,68,0.00,,,0.00,pywws,2013-03-19 18:13:00,
2013-03-19 11:18:00,44.6,34.7,30.04,North,-999,0.0,0.0,68,0.00,,,0.00,pywws,2013-03-19 18:18:00,
2013-03-19 11:23:00,45.3,34.6,30.04,SE,135,1.6,2.2,66,0.00,,,0.00,pywws,2013-03-19 18:23:00,
2013-03-19 11:28:00,45.9,34.8,30.03,West,270,0.7,1.6,65,0.00,,,0.00,pywws,2013-03-19 18:28:00,
2013-03-19 11:33:00,46.4,35.3,30.03,North,-999,0.0,0.0,65,0.00,,,0.00,pywws,2013-03-19 18:33:00,
2013-03-19 11:38:00,47.3,36.1,30.03,North,-999,0.0,0.0,65,0.00,,,0.00,pywws,2013-03-19 18:38:00,
2013-03-19 11:43:00,47.7,33.6,30.03,SE,135,1.6,2.2,58,0.00,,,0.00,pywws,2013-03-19 18:43:00,
2013-03-19 11:48:00,48.0,34.8,30.03,West,270,0.7,1.6,60,0.00,,,0.00,pywws,2013-03-19 18:48:00,
2013-03-19 11:53:00,47.7,34.5,30.03,East,90,2.2,3.1,60,0.00,,,0.00,pywws,2013-03-19 18:53:00,
2013-03-19 11:58:00,47.7,34.0,30.03,North,-999,0.0,0.0,59,0.00,,,0.00,pywws,2013-03-19 18:58:00,
2013-03-19 12:03:00,47.7,35.3,30.02,East,90,0.7,1.6,62,0.00,,,0.00,pywws,2013-03-19 19:03:00,
2013-03-19 12:08:00,48.0,34.0,30.02,North,-999,0.0,0.7,58,0.00,,,0.00,pywws,2013-03-19 19:08:00,
2013-03-19 12:13:00,48.7,34.6,30.03,East,90,0.7,2.2,58,0.00,,,0.00,pywws,2013-03-19 19:13:00,
2013-03-19 12:18:00,49.6,34.1,30.02,East,90,1.6,3.1,55,0.00,,,0.00,pywws,2013-03-19 19:18:00,
2013-03-19 12:23:00,49.5,35.3,30.01,North,0,0.7,1.6,58,0.00,,,0.00,pywws,2013-03-19 19:23:00,
2013-03-19 12:28:00,50.4,36.6,30.01,East,90,1.6,3.1,59,0.00,,,0.00,pywws,2013-03-19 19:28:00,
2013-03-19 12:33:00,50.9,35.8,30.01,South,180,1.6,2.2,56,0.00,,,0.00,pywws,2013-03-19 19:33:00,
2013-03-19 12:38:00,52.3,35.7,30.00,East,90,0.7,2.2,53,0.00,,,0.00,pywws,2013-03-19 19:38:00,
2013-03-19 12:43:00,52.3,36.2,30.00,North,-999,0.0,0.0,54,0.00,,,0.00,pywws,2013-03-19 19:43:00,
2013-03-19 12:48:00,53.1,36.4,29.98,North,-999,0.0,0.0,53,0.00,,,0.00,pywws,2013-03-19 19:48:00,
2013-03-19 12:53:00,53.4,35.7,29.99,South,180,1.6,2.2,51,0.00,,,0.00,pywws,2013-03-19 19:53:00,
2013-03-19 13:03:00,54.0,35.2,29.98,North,-999,0.0,0.0,49,0.00,,,0.00,pywws,2013-03-19 20:03:00,
2013-03-19 13:08:00,54.1,34.4,29.98,East,90,0.7,2.2,47,0.00,,,0.00,pywws,2013-03-19 20:08:00,
2013-03-19 13:14:00,53.6,33.9,29.97,South,180,1.6,3.1,47,0.00,,,0.00,pywws,2013-03-19 20:14:00,
2013-03-19 13:19:00,54.0,33.7,29.97,South,180,0.7,1.6,46,0.00,,,0.00,pywws,2013-03-19 20:19:00,
2013-03-19 13:25:00,54.1,31.6,29.97,North,-999,0.0,2.2,42,0.00,,,0.00,pywws,2013-03-19 20:25:00,
2013-03-19 13:30:00,54.1,34.4,29.97,North,-999,0.0,0.7,47,0.00,,,0.00,pywws,2013-03-19 20:30:00,
2013-03-19 13:37:00,53.8,31.8,29.96,North,-999,0.0,0.0,43,0.00,,,0.00,pywws,2013-03-19 20:37:00,
2013-03-19 13:42:00,54.0,36.2,29.96,North,0,0.7,2.2,51,0.00,,,0.00,pywws,2013-03-19 20:42:00,
2013-03-19 13:47:00,54.1,34.9,29.96,North,-999,0.0,0.0,48,0.00,,,0.00,pywws,2013-03-19 20:47:00,
2013-03-19 13:53:00,53.4,34.2,29.95,South,180,0.7,1.6,48,0.00,,,0.00,pywws,2013-03-19 20:53:00,
2013-03-19 13:58:00,54.1,35.9,29.95,South,180,0.7,1.6,50,0.00,,,0.00,pywws,2013-03-19 20:58:00,
2013-03-19 14:04:00,54.7,33.2,29.95,North,-999,0.0,0.7,44,0.00,,,0.00,pywws,2013-03-19 21:04:00,
2013-03-19 14:10:00,54.9,35.0,29.95,North,-999,0.0,0.0,47,0.00,,,0.00,pywws,2013-03-19 21:10:00,
2013-03-19 14:15:00,55.9,34.9,29.95,East,90,0.7,2.2,45,0.00,,,0.00,pywws,2013-03-19 21:15:00,
2013-03-19 14:21:00,55.2,32.5,29.95,South,180,0.7,2.2,42,0.00,,,0.00,pywws,2013-03-19 21:21:00,
2013-03-19 14:26:00,54.7,31.4,29.95,North,-999,0.0,0.7,41,0.00,,,0.00,pywws,2013-03-19 21:26:00,
2013-03-19 14:32:00,54.3,33.4,29.95,North,-999,0.0,0.0,45,0.00,,,0.00,pywws,2013-03-19 21:32:00,
2013-03-19 14:38:00,53.8,33.5,29.95,North,-999,0.0,0.0,46,0.00,,,0.00,pywws,2013-03-19 21:38:00,
2013-03-19 14:43:00,54.0,34.7,29.95,North,-999,0.0,1.6,48,0.00,,,0.00,pywws,2013-03-19 21:43:00,
2013-03-19 14:49:00,54.0,33.1,29.95,North,-999,0.0,0.0,45,0.00,,,0.00,pywws,2013-03-19 21:49:00,
2013-03-19 14:54:00,54.0,35.2,29.95,North,-999,0.0,0.0,49,0.00,,,0.00,pywws,2013-03-19 21:54:00,
2013-03-19 15:00:00,53.4,33.7,29.94,North,-999,0.0,0.0,47,0.00,,,0.00,pywws,2013-03-19 22:00:00,
2013-03-19 15:06:00,53.4,33.7,29.95,North,-999,0.0,0.0,47,0.00,,,0.00,pywws,2013-03-19 22:06:00,
2013-03-19 15:11:00,52.2,34.1,29.95,East,90,0.7,1.6,50,0.00,,,0.00,pywws,2013-03-19 22:11:00,
2013-03-19 15:17:00,52.2,35.1,29.94,North,-999,0.0,0.0,52,0.00,,,0.00,pywws,2013-03-19 22:17:00,
2013-03-19 15:22:00,52.2,35.1,29.94,North,-999,0.0,0.0,52,0.00,,,0.00,pywws,2013-03-19 22:22:00,
2013-03-19 15:28:00,51.6,35.5,29.94,North,-999,0.0,0.0,54,0.00,,,0.00,pywws,2013-03-19 22:28:00,
2013-03-19 15:34:00,50.9,35.3,29.94,South,180,0.7,2.2,55,0.00,,,0.00,pywws,2013-03-19 22:34:00,
2013-03-19 15:39:00,50.5,36.3,29.94,East,90,0.7,2.2,58,0.00,,,0.00,pywws,2013-03-19 22:39:00,
2013-03-19 15:45:00,50.4,37.8,29.93,North,-999,0.0,1.6,62,0.00,,,0.00,pywws,2013-03-19 22:45:00,
2013-03-19 15:50:00,50.4,37.4,29.93,North,-999,0.0,0.0,61,0.00,,,0.00,pywws,2013-03-19 22:50:00,
2013-03-19 15:56:00,50.5,38.0,29.93,South,180,0.7,2.2,62,0.00,,,0.00,pywws,2013-03-19 22:56:00,
2013-03-19 16:01:00,51.1,36.8,29.93,North,-999,0.0,0.7,58,0.00,,,0.00,pywws,2013-03-19 23:01:00,
2013-03-19 16:06:00,50.5,37.6,29.93,East,90,1.6,2.2,61,0.00,,,0.00,pywws,2013-03-19 23:06:00,
2013-03-19 16:12:00,50.4,37.4,29.92,North,-999,0.0,0.7,61,0.00,,,0.00,pywws,2013-03-19 23:12:00,
2013-03-19 16:18:00,50.4,37.0,29.92,North,0,1.6,3.8,60,0.00,,,0.00,pywws,2013-03-19 23:18:00,
2013-03-19 16:23:00,50.0,36.2,29.91,SE,135,0.7,1.6,59,0.00,,,0.00,pywws,2013-03-19 23:23:00,
2013-03-19 16:29:00,49.8,37.7,29.91,North,-999,0.0,0.0,63,0.00,,,0.00,pywws,2013-03-19 23:29:00,
2013-03-19 16:34:00,49.6,37.2,29.91,North,-999,0.0,0.0,62,0.00,,,0.00,pywws,2013-03-19 23:34:00,
2013-03-19 16:40:00,49.5,37.4,29.91,North,-999,0.0,0.0,63,0.00,,,0.00,pywws,2013-03-19 23:40:00,
2013-03-19 16:46:00,49.1,37.5,29.91,North,-999,0.0,0.7,64,0.00,,,0.00,pywws,2013-03-19 23:46:00,
2013-03-19 16:51:00,48.4,37.2,29.91,North,-999,0.0,0.0,65,0.00,,,0.00,pywws,2013-03-19 23:51:00,
2013-03-19 16:57:00,47.1,36.4,29.91,North,-999,0.0,0.7,66,0.00,,,0.00,pywws,2013-03-19 23:57:00,
2013-03-19 17:02:00,46.8,36.4,29.91,North,-999,0.0,1.6,67,0.01,,,0.01,pywws,2013-03-20 00:02:00,
2013-03-19 17:07:00,45.9,36.6,29.91,North,-999,0.0,0.0,70,0.01,,,0.01,pywws,2013-03-20 00:07:00,
2013-03-19 17:13:00,45.1,36.3,29.90,North,-999,0.0,0.0,71,0.01,,,0.01,pywws,2013-03-20 00:13:00,
2013-03-19 17:18:00,44.4,36.3,29.90,North,-999,0.0,0.7,73,0.01,,,0.01,pywws,2013-03-20 00:18:00,
2013-03-19 17:24:00,44.1,36.0,29.90,North,-999,0.0,1.6,73,0.02,,,0.02,pywws,2013-03-20 00:24:00,
2013-03-19 17:30:00,43.9,36.1,29.89,North,-999,0.0,0.0,74,0.02,,,0.02,pywws,2013-03-20 00:30:00,
2013-03-19 17:35:00,43.5,35.8,29.89,North,-999,0.0,0.0,74,0.02,,,0.02,pywws,2013-03-20 00:35:00,
2013-03-19 17:41:00,43.2,35.4,29.89,South,180,0.7,1.6,74,0.04,,,0.04,pywws,2013-03-20 00:41:00,
2013-03-19 17:46:00,42.8,35.1,29.90,North,-999,0.0,1.6,74,0.04,,,0.04,pywws,2013-03-20 00:46:00,
2013-03-19 17:52:00,42.6,35.3,29.90,North,-999,0.0,0.0,75,0.04,,,0.04,pywws,2013-03-20 00:52:00,
2013-03-19 17:58:00,42.4,35.4,29.89,North,-999,0.0,0.0,76,0.02,,,0.04,pywws,2013-03-20 00:58:00,
2013-03-19 18:03:00,42.1,35.1,29.88,North,-999,0.0,0.0,76,0.02,,,0.04,pywws,2013-03-20 01:03:00,
2013-03-19 18:09:00,41.7,34.7,29.87,North,-999,0.0,1.6,76,0.04,,,0.05,pywws,2013-03-20 01:09:00,
2013-03-19 18:14:00,41.5,34.5,29.87,SE,135,0.7,2.2,76,0.04,,,0.05,pywws,2013-03-20 01:14:00,
2013-03-19 18:20:00,41.4,34.4,29.87,East,90,1.6,3.1,76,0.04,,,0.05,pywws,2013-03-20 01:20:00,
2013-03-19 18:26:00,41.4,34.4,29.86,East,90,0.7,1.6,76,0.02,,,0.05,pywws,2013-03-20 01:26:00,
2013-03-19 18:31:00,41.2,34.2,29.85,North,-999,0.0,0.0,76,0.04,,,0.06,pywws,2013-03-20 01:31:00,
2013-03-19 18:37:00,41.0,34.0,29.85,North,-999,0.0,1.6,76,0.04,,,0.06,pywws,2013-03-20 01:37:00,
2013-03-19 18:42:00,40.8,34.2,29.84,East,90,0.7,1.6,77,0.02,,,0.06,pywws,2013-03-20 01:42:00,
2013-03-19 18:48:00,40.6,34.0,29.84,East,90,0.7,2.2,77,0.02,,,0.06,pywws,2013-03-20 01:48:00,
2013-03-19 18:54:00,40.5,33.8,29.84,North,-999,0.0,0.0,77,0.04,,,0.07,pywws,2013-03-20 01:54:00,
2013-03-19 18:59:00,40.3,33.7,29.83,East,90,0.7,1.6,77,0.04,,,0.07,pywws,2013-03-20 01:59:00,
2013-03-19 19:05:00,40.3,33.7,29.83,North,-999,0.0,0.7,77,0.05,,,0.08,pywws,2013-03-20 02:05:00,
2013-03-19 19:13:00,40.3,33.7,29.83,North,-999,0.0,0.0,77,0.04,,,0.08,pywws,2013-03-20 02:13:00,
2013-03-19 19:18:00,40.1,33.8,29.83,North,-999,0.0,0.0,78,0.04,,,0.08,pywws,2013-03-20 02:18:00,
2013-03-19 19:23:00,40.1,33.8,29.82,East,90,0.7,1.6,78,0.05,,,0.09,pywws,2013-03-20 02:23:00,
2013-03-19 19:28:00,39.7,33.5,29.82,East,90,0.7,1.6,78,0.05,,,0.09,pywws,2013-03-20 02:28:00,
2013-03-19 19:33:00,40.1,33.8,29.82,North,-999,0.0,0.0,78,0.05,,,0.11,pywws,2013-03-20 02:33:00,
2013-03-19 19:38:00,39.9,33.6,29.81,North,-999,0.0,1.6,78,0.05,,,0.11,pywws,2013-03-20 02:38:00,
2013-03-19 19:43:00,39.9,33.6,29.81,East,90,0.7,2.2,78,0.05,,,0.11,pywws,2013-03-20 02:43:00,
2013-03-19 19:48:00,39.9,33.6,29.80,East,90,1.6,2.2,78,0.06,,,0.12,pywws,2013-03-20 02:48:00,
2013-03-19 19:53:00,40.1,33.8,29.80,North,-999,0.0,0.0,78,0.05,,,0.12,pywws,2013-03-20 02:53:00,
2013-03-19 19:58:00,39.7,33.5,29.80,East,90,0.7,1.6,78,0.05,,,0.12,pywws,2013-03-20 02:58:00,
2013-03-19 20:03:00,39.9,33.9,29.79,North,-999,0.0,0.0,79,0.06,,,0.13,pywws,2013-03-20 03:03:00,
2013-03-19 20:08:00,39.6,33.6,29.79,SE,135,0.7,1.6,79,0.05,,,0.13,pywws,2013-03-20 03:08:00,
2013-03-19 20:13:00,39.6,33.6,29.78,East,90,0.7,2.2,79,0.05,,,0.13,pywws,2013-03-20 03:13:00,
2013-03-19 20:18:00,39.6,33.6,29.78,North,-999,0.0,0.7,79,0.06,,,0.14,pywws,2013-03-20 03:18:00,
2013-03-19 20:23:00,39.7,33.8,29.78,North,-999,0.0,0.0,79,0.05,,,0.14,pywws,2013-03-20 03:23:00,
2013-03-19 20:28:00,39.7,33.8,29.78,North,-999,0.0,0.0,79,0.06,,,0.15,pywws,2013-03-20 03:28:00,
2013-03-19 20:33:00,39.7,33.8,29.77,North,-999,0.0,0.0,79,0.05,,,0.15,pywws,2013-03-20 03:33:00,
2013-03-19 20:38:00,39.6,33.6,29.77,North,-999,0.0,1.6,79,0.06,,,0.17,pywws,2013-03-20 03:38:00,
2013-03-19 20:43:00,39.7,33.8,29.75,East,90,1.6,2.2,79,0.07,,,0.18,pywws,2013-03-20 03:43:00,
2013-03-19 20:48:00,39.6,33.6,29.75,North,-999,0.0,0.0,79,0.06,,,0.18,pywws,2013-03-20 03:48:00,
2013-03-19 20:53:00,39.6,33.9,29.75,North,-999,0.0,0.0,80,0.06,,,0.18,pywws,2013-03-20 03:53:00,
2013-03-19 20:58:00,39.6,33.9,29.75,North,-999,0.0,0.0,80,0.06,,,0.18,pywws,2013-03-20 03:58:00,
2013-03-19 21:03:00,39.6,33.9,29.74,North,-999,0.0,0.0,80,0.05,,,0.18,pywws,2013-03-20 04:03:00,
2013-03-19 21:08:00,39.6,33.9,29.74,North,-999,0.0,0.0,80,0.06,,,0.19,pywws,2013-03-20 04:08:00,
2013-03-19 21:13:00,39.6,33.9,29.74,North,-999,0.0,0.0,80,0.06,,,0.19,pywws,2013-03-20 04:13:00,
2013-03-19 21:18:00,39.6,33.9,29.73,North,-999,0.0,0.0,80,0.05,,,0.19,pywws,2013-03-20 04:18:00,
2013-03-19 21:23:00,39.7,34.1,29.73,North,-999,0.0,0.0,80,0.05,,,0.19,pywws,2013-03-20 04:23:00,
2013-03-19 21:28:00,39.7,34.4,29.72,North,-999,0.0,0.0,81,0.04,,,0.19,pywws,2013-03-20 04:28:00,
2013-03-19 21:33:00,39.7,34.4,29.72,North,-999,0.0,0.0,81,0.04,,,0.19,pywws,2013-03-20 04:33:00,
2013-03-19 21:38:00,39.7,34.4,29.72,North,-999,0.0,0.0,81,0.02,,,0.19,pywws,2013-03-20 04:38:00,
2013-03-19 21:43:00,39.7,34.4,29.71,North,-999,0.0,0.7,81,0.01,,,0.19,pywws,2013-03-20 04:43:00,
2013-03-19 21:48:00,39.7,34.4,29.71,North,-999,0.0,0.0,81,0.01,,,0.19,pywws,2013-03-20 04:48:00,
2013-03-19 21:53:00,39.6,34.2,29.70,North,-999,0.0,1.6,81,0.01,,,0.19,pywws,2013-03-20 04:53:00,
2013-03-19 21:58:00,39.4,34.0,29.69,North,-999,0.0,0.0,81,0.01,,,0.19,pywws,2013-03-20 04:58:00,
2013-03-19 22:03:00,39.6,34.2,29.69,North,-999,0.0,0.0,81,0.01,,,0.19,pywws,2013-03-20 05:03:00,
2013-03-19 22:08:00,39.6,34.2,29.68,North,-999,0.0,0.0,81,0.00,,,0.19,pywws,2013-03-20 05:08:00,
2013-03-19 22:13:00,39.6,34.2,29.68,North,-999,0.0,0.0,81,0.00,,,0.19,pywws,2013-03-20 05:13:00,
2013-03-19 22:18:00,39.6,34.2,29.68,North,-999,0.0,0.0,81,0.00,,,0.19,pywws,2013-03-20 05:18:00,
2013-03-19 22:23:00,39.6,34.5,29.67,North,-999,0.0,0.0,82,0.00,,,0.19,pywws,2013-03-20 05:23:00,
2013-03-19 22:28:00,39.6,34.5,29.67,North,-999,0.0,0.0,82,0.00,,,0.19,pywws,2013-03-20 05:28:00,
2013-03-19 22:33:00,39.6,34.5,29.67,North,-999,0.0,0.0,82,0.01,,,0.20,pywws,2013-03-20 05:33:00,
2013-03-19 22:38:00,39.7,34.7,29.67,North,-999,0.0,0.0,82,0.01,,,0.20,pywws,2013-03-20 05:38:00,
2013-03-19 22:43:00,39.6,34.5,29.66,North,-999,0.0,0.0,82,0.01,,,0.20,pywws,2013-03-20 05:43:00,
2013-03-19 22:48:00,39.7,34.7,29.66,North,-999,0.0,0.0,82,0.01,,,0.20,pywws,2013-03-20 05:48:00,
2013-03-19 22:53:00,39.7,34.7,29.66,North,-999,0.0,0.0,82,0.01,,,0.20,pywws,2013-03-20 05:53:00,
2013-03-19 22:58:00,39.6,34.5,29.66,North,-999,0.0,0.0,82,0.01,,,0.20,pywws,2013-03-20 05:58:00,
2013-03-19 23:03:00,39.7,34.7,29.65,North,-999,0.0,0.0,82,0.01,,,0.20,pywws,2013-03-20 06:03:00,
2013-03-19 23:08:00,39.9,34.9,29.65,North,-999,0.0,0.0,82,0.01,,,0.20,pywws,2013-03-20 06:08:00,
2013-03-19 23:13:00,39.9,34.9,29.64,North,-999,0.0,0.0,82,0.02,,,0.21,pywws,2013-03-20 06:13:00,
2013-03-19 23:18:00,40.1,35.4,29.65,North,-999,0.0,0.0,83,0.02,,,0.21,pywws,2013-03-20 06:18:00,
2013-03-19 23:28:00,40.1,35.4,29.64,North,-999,0.0,0.0,83,0.02,,,0.21,pywws,2013-03-20 06:28:00,
2013-03-19 23:34:00,40.1,35.4,29.64,North,-999,0.0,0.0,83,0.02,,,0.22,pywws,2013-03-20 06:34:00,
2013-03-19 23:39:00,40.1,35.4,29.64,North,-999,0.0,0.0,83,0.02,,,0.22,pywws,2013-03-20 06:39:00,
2013-03-19 23:45:00,40.1,35.4,29.63,North,-999,0.0,0.0,83,0.02,,,0.22,pywws,2013-03-20 06:45:00,
2013-03-19 23:50:00,40.1,35.4,29.63,North,-999,0.0,0.0,83,0.02,,,0.22,pywws,2013-03-20 06:50:00,
2013-03-19 23:56:00,40.1,35.4,29.63,North,-999,0.0,0.0,83,0.04,,,0.24,pywws,2013-03-20 06:56:00,